createdAt,value
2023-02-28T00:01:53.421Z,6.77
2023-02-28T00:04:26.487Z,5.97
2023-02-28T00:06:59.490Z,5.90
2023-02-28T00:09:34.044Z,6.40
2023-02-28T00:12:11.013Z,5.80
2023-02-28T00:14:43.979Z,6.37
2023-02-28T00:17:18.741Z,6.20
2023-02-28T00:19:52.912Z,6.33
2023-02-28T00:22:26.013Z,6.03
2023-02-28T00:25:00.285Z,6.13
2023-02-28T00:27:33.361Z,6.00
2023-02-28T00:30:09.226Z,6.27
2023-02-28T00:32:42.318Z,6.20
2023-02-28T00:35:15.753Z,6.10
2023-02-28T00:37:50.589Z,6.50
2023-02-28T00:40:24.941Z,6.20
2023-02-28T00:42:57.898Z,6.87
2023-02-28T00:45:30.986Z,6.70
2023-02-28T00:48:05.107Z,7.00
2023-02-28T00:50:38.171Z,6.40
2023-02-28T00:53:11.126Z,6.70
2023-02-28T00:55:45.774Z,6.17
2023-02-28T00:58:19.248Z,6.33
2023-02-28T01:00:53.671Z,6.80
2023-02-28T01:03:27.094Z,6.37
2023-02-28T01:06:00.496Z,6.77
2023-02-28T01:08:33.628Z,7.13
2023-02-28T01:11:13.386Z,6.63
2023-02-28T01:13:48.301Z,7.03
2023-02-28T01:16:21.448Z,6.37
2023-02-28T01:18:54.582Z,6.90
2023-02-28T01:21:28.201Z,7.30
2023-02-28T01:24:01.414Z,7.30
2023-02-28T01:26:36.021Z,6.97
2023-02-28T01:29:09.092Z,6.40
2023-02-28T01:31:42.082Z,6.73
2023-02-28T01:34:15.138Z,6.83
2023-02-28T01:36:48.137Z,7.60
2023-02-28T01:39:21.122Z,7.50
2023-02-28T01:41:55.451Z,7.73
2023-02-28T01:45:06.434Z,7.30
2023-02-28T01:47:43.671Z,7.23
2023-02-28T01:50:21.455Z,6.57
2023-02-28T01:52:57.488Z,6.27
2023-02-28T01:55:31.554Z,6.37
2023-02-28T01:58:10.175Z,7.13
2023-02-28T02:00:43.705Z,7.10
2023-02-28T02:03:20.857Z,7.17
2023-02-28T02:05:54.031Z,7.27
2023-02-28T02:08:30.412Z,7.90
2023-02-28T02:11:04.444Z,6.87
2023-02-28T02:14:09.221Z,7.10
2023-02-28T02:17:07.011Z,7.03
2023-02-28T02:20:27.118Z,7.03
2023-02-28T02:23:32.807Z,7.63
2023-02-28T02:26:36.911Z,7.20
2023-02-28T02:29:54.369Z,7.70
2023-02-28T02:33:16.666Z,7.23
2023-02-28T02:35:56.828Z,7.90
2023-02-28T02:38:37.123Z,7.70
2023-02-28T02:41:16.400Z,8.50
2023-02-28T02:43:54.763Z,7.73
2023-02-28T02:46:32.482Z,7.87
2023-02-28T02:49:10.308Z,7.43
2023-02-28T02:51:46.505Z,7.67
2023-02-28T02:54:23.238Z,7.13
2023-02-28T02:56:57.703Z,7.50
2023-02-28T02:59:32.333Z,8.00
2023-02-28T03:02:10.370Z,7.83
2023-02-28T03:04:48.541Z,8.07
2023-02-28T03:07:23.036Z,7.93
2023-02-28T03:09:58.371Z,7.80
2023-02-28T03:12:42.889Z,8.00
2023-02-28T03:15:23.745Z,7.60
2023-02-28T03:18:06.781Z,7.63
2023-02-28T03:20:49.297Z,7.93
2023-02-28T03:23:31.732Z,7.37
2023-02-28T03:26:10.201Z,9.17
2023-02-28T03:28:53.382Z,7.63
2023-02-28T03:31:33.396Z,7.93
2023-02-28T03:34:12.926Z,7.27
2023-02-28T03:36:50.472Z,8.87
2023-02-28T03:39:31.022Z,8.93
2023-02-28T03:42:09.520Z,7.93
2023-02-28T03:44:45.373Z,8.97
2023-02-28T03:47:24.372Z,8.87
2023-02-28T03:50:01.327Z,8.83
2023-02-28T03:52:42.104Z,8.60
2023-02-28T03:55:17.899Z,8.33
2023-02-28T03:58:02.425Z,8.40
2023-02-28T04:00:39.267Z,8.10
2023-02-28T04:03:12.337Z,8.83
2023-02-28T04:05:52.956Z,8.67
2023-02-28T04:08:26.045Z,8.37
2023-02-28T04:11:06.870Z,8.67
2023-02-28T04:13:39.850Z,9.77
2023-02-28T04:16:18.766Z,9.57
2023-02-28T04:19:02.959Z,9.50
2023-02-28T04:21:39.897Z,9.13
2023-02-28T04:24:15.987Z,9.00
2023-02-28T04:26:53.013Z,8.53
2023-02-28T04:29:28.687Z,9.10
2023-02-28T04:32:03.421Z,9.23
2023-02-28T04:34:36.641Z,9.53
2023-02-28T04:37:13.845Z,9.33
2023-02-28T04:39:47.164Z,10.07
2023-02-28T04:42:21.513Z,9.43
2023-02-28T04:44:54.647Z,9.50
2023-02-28T04:47:27.629Z,9.90
2023-02-28T04:50:00.607Z,9.13
2023-02-28T04:52:33.632Z,9.40
2023-02-28T04:55:07.995Z,10.00
2023-02-28T04:57:43.588Z,9.63
2023-02-28T05:00:17.737Z,9.93
2023-02-28T05:02:50.720Z,9.90
2023-02-28T05:05:23.899Z,9.47
2023-02-28T05:07:57.256Z,9.83
2023-02-28T05:10:30.761Z,9.07
2023-02-28T05:13:05.537Z,9.40
2023-02-28T05:15:38.569Z,9.40
2023-02-28T05:18:11.783Z,10.13
2023-02-28T05:20:44.747Z,9.53
2023-02-28T05:23:19.718Z,10.43
2023-02-28T05:25:53.130Z,11.17
2023-02-28T05:28:27.444Z,9.77
2023-02-28T05:31:00.474Z,10.33
2023-02-28T05:33:33.851Z,10.90
2023-02-28T05:36:08.652Z,10.20
2023-02-28T05:38:41.787Z,9.93
2023-02-28T05:41:14.856Z,10.80
2023-02-28T05:43:49.786Z,10.60
2023-02-28T05:46:23.007Z,11.37
2023-02-28T05:48:56.785Z,11.43
2023-02-28T05:51:30.336Z,10.80
2023-02-28T05:54:03.981Z,11.50
2023-02-28T05:56:38.731Z,10.73
2023-02-28T05:59:13.452Z,11.17
2023-02-28T06:01:49.270Z,11.50
2023-02-28T06:04:31.509Z,11.43
2023-02-28T06:07:05.313Z,10.93
2023-02-28T06:09:39.156Z,11.83
2023-02-28T06:12:13.114Z,12.20
2023-02-28T06:14:47.542Z,11.63
2023-02-28T06:17:20.700Z,11.63
2023-02-28T06:19:53.935Z,11.93
2023-02-28T06:22:27.267Z,11.37
2023-02-28T06:25:00.417Z,11.13
2023-02-28T06:27:34.551Z,11.07
2023-02-28T06:30:11.627Z,11.67
2023-02-28T06:32:44.949Z,12.20
2023-02-28T06:35:18.434Z,11.70
2023-02-28T06:37:51.546Z,11.77
2023-02-28T06:40:24.863Z,12.07
2023-02-28T06:42:58.010Z,12.70
2023-02-28T06:45:32.663Z,12.33
2023-02-28T06:48:06.072Z,11.50
2023-02-28T06:50:39.501Z,11.70
2023-02-28T06:53:12.633Z,13.23
2023-02-28T06:55:45.736Z,11.93
2023-02-28T06:58:19.951Z,12.53
2023-02-28T07:00:55.237Z,12.50
2023-02-28T07:03:28.320Z,11.83
2023-02-28T07:06:02.068Z,12.27
2023-02-28T07:08:35.444Z,13.50
2023-02-28T07:11:08.429Z,11.60
2023-02-28T07:13:41.444Z,12.43
2023-02-28T07:16:15.836Z,12.27
2023-02-28T07:18:49.226Z,11.67
2023-02-28T07:21:22.248Z,13.13
2023-02-28T07:23:55.260Z,12.73
2023-02-28T07:26:28.269Z,13.13
2023-02-28T07:29:01.352Z,13.07
2023-02-28T07:31:35.700Z,13.77
2023-02-28T07:34:08.916Z,12.00
2023-02-28T07:36:42.103Z,11.63
2023-02-28T07:39:15.191Z,12.93
2023-02-28T07:41:48.159Z,13.63
2023-02-28T07:44:22.076Z,12.97
2023-02-28T07:46:56.673Z,13.93
2023-02-28T07:49:29.694Z,13.20
2023-02-28T07:52:02.662Z,12.77
2023-02-28T07:54:36.174Z,13.77
2023-02-28T07:57:09.120Z,13.37
2023-02-28T07:59:42.044Z,12.73
2023-02-28T08:02:18.145Z,13.00
2023-02-28T08:04:51.370Z,13.57
2023-02-28T08:07:24.381Z,13.97
2023-02-28T08:09:57.458Z,13.37
2023-02-28T08:12:30.455Z,13.07
2023-02-28T08:15:03.434Z,13.33
2023-02-28T08:17:37.774Z,13.27
2023-02-28T08:20:12.616Z,13.87
2023-02-28T08:22:46.387Z,13.00
2023-02-28T08:25:20.232Z,12.27
2023-02-28T08:27:53.998Z,13.17
2023-02-28T08:30:26.976Z,13.70
2023-02-28T08:33:02.746Z,13.67
2023-02-28T08:35:38.380Z,13.83
2023-02-28T08:38:11.355Z,13.93
2023-02-28T08:40:44.379Z,14.67
2023-02-28T08:43:17.540Z,13.73
2023-02-28T08:45:53.889Z,14.33
2023-02-28T08:48:30.755Z,14.03
2023-02-28T08:51:10.167Z,14.80
2023-02-28T08:53:43.323Z,15.23
2023-02-28T08:56:18.322Z,14.43
2023-02-28T08:58:52.500Z,13.80
2023-02-28T09:01:29.500Z,13.43
2023-02-28T09:04:04.297Z,14.73
2023-02-28T09:06:37.663Z,14.13
2023-02-28T09:09:10.702Z,14.33
2023-02-28T09:11:43.745Z,13.23
2023-02-28T09:14:18.409Z,13.67
2023-02-28T09:16:51.716Z,14.10
2023-02-28T09:19:26.042Z,13.80
2023-02-28T09:21:59.318Z,14.60
2023-02-28T09:24:32.857Z,13.93
2023-02-28T09:27:07.209Z,14.60
2023-02-28T09:29:40.522Z,15.07
2023-02-28T09:32:13.629Z,14.53
2023-02-28T09:34:47.955Z,14.67
2023-02-28T09:37:20.932Z,14.40
2023-02-28T09:39:53.967Z,14.63
2023-02-28T09:42:33.719Z,14.33
2023-02-28T09:45:18.179Z,13.90
2023-02-28T09:47:54.349Z,14.97
2023-02-28T09:50:36.207Z,15.00
2023-02-28T09:53:22.403Z,14.50
2023-02-28T09:56:00.664Z,14.30
2023-02-28T09:58:44.102Z,15.03
2023-02-28T10:01:30.420Z,15.20
2023-02-28T10:04:10.419Z,14.30
2023-02-28T10:06:50.942Z,14.83
2023-02-28T10:09:29.343Z,13.90
2023-02-28T10:12:06.728Z,14.77
2023-02-28T10:14:51.612Z,13.53
2023-02-28T10:17:28.923Z,14.43
2023-02-28T10:20:11.882Z,14.60
2023-02-28T10:22:55.605Z,14.17
2023-02-28T10:25:31.174Z,13.70
2023-02-28T10:28:13.303Z,13.83
2023-02-28T10:30:50.226Z,13.70
2023-02-28T10:33:27.012Z,13.80
2023-02-28T10:36:01.553Z,14.47
2023-02-28T10:38:39.016Z,13.87
2023-02-28T10:41:16.125Z,13.97
2023-02-28T10:43:49.118Z,14.10
2023-02-28T10:46:26.830Z,14.77
2023-02-28T10:49:05.905Z,14.47
2023-02-28T10:51:41.674Z,15.13
2023-02-28T10:54:21.965Z,14.40
2023-02-28T10:57:19.247Z,14.03
2023-02-28T10:59:53.784Z,14.43
2023-02-28T11:02:36.578Z,14.40
2023-02-28T11:05:28.763Z,14.17
2023-02-28T11:08:08.902Z,14.20
2023-02-28T11:10:48.202Z,14.00
2023-02-28T11:13:26.486Z,13.80
2023-02-28T11:16:03.156Z,14.67
2023-02-28T11:18:44.015Z,14.40
2023-02-28T11:21:29.870Z,14.07
2023-02-28T11:24:07.700Z,15.07
2023-02-28T11:26:45.171Z,13.73
2023-02-28T11:29:23.405Z,15.27
2023-02-28T11:32:15.238Z,14.97
2023-02-28T11:35:03.234Z,14.37
2023-02-28T11:37:36.295Z,15.53
2023-02-28T11:40:16.518Z,14.57
2023-02-28T11:43:15.612Z,14.40
2023-02-28T11:46:08.999Z,14.17
2023-02-28T11:48:53.920Z,14.50
2023-02-28T11:51:34.532Z,14.63
2023-02-28T11:54:27.981Z,14.17
2023-02-28T11:57:09.240Z,13.57
2023-02-28T12:00:00.377Z,13.17
2023-02-28T12:02:53.044Z,13.93
2023-02-28T12:05:34.187Z,14.40
2023-02-28T12:08:25.156Z,14.43
2023-02-28T12:11:13.014Z,14.07
2023-02-28T12:14:00.293Z,13.00
2023-02-28T12:17:03.352Z,13.03
2023-02-28T12:19:46.971Z,13.57
2023-02-28T12:22:45.691Z,14.00
2023-02-28T12:25:44.425Z,13.70
2023-02-28T12:28:23.804Z,14.97
2023-02-28T12:31:02.566Z,14.00
2023-02-28T12:33:42.810Z,14.07
2023-02-28T12:36:23.014Z,12.90
2023-02-28T12:39:02.496Z,14.00
2023-02-28T12:41:41.419Z,13.70
2023-02-28T12:44:20.148Z,13.17
2023-02-28T12:46:56.605Z,14.13
2023-02-28T12:49:35.566Z,13.80
2023-02-28T12:52:12.143Z,13.50
2023-02-28T12:54:53.300Z,13.93
2023-02-28T12:57:36.067Z,13.87
2023-02-28T13:00:16.306Z,14.37
2023-02-28T13:03:31.225Z,13.97
2023-02-28T13:06:24.710Z,13.33
2023-02-28T13:09:07.548Z,12.73
2023-02-28T13:11:44.662Z,13.17
2023-02-28T13:14:28.884Z,13.23
2023-02-28T13:17:11.746Z,14.43
2023-02-28T13:19:48.712Z,13.83
2023-02-28T13:22:41.096Z,13.60
2023-02-28T13:25:55.537Z,13.30
2023-02-28T13:29:23.858Z,13.20
2023-02-28T13:32:43.016Z,14.50
2023-02-28T13:35:46.133Z,12.53
2023-02-28T13:38:36.820Z,13.47
2023-02-28T13:41:48.608Z,13.50
2023-02-28T13:44:24.950Z,13.00
2023-02-28T13:47:24.746Z,12.67
2023-02-28T13:50:25.998Z,13.43
2023-02-28T13:53:39.233Z,13.53
2023-02-28T13:56:29.781Z,13.60
2023-02-28T13:59:15.585Z,12.97
2023-02-28T14:02:05.692Z,13.60
2023-02-28T14:04:56.458Z,14.13
2023-02-28T14:07:36.298Z,13.33
2023-02-28T14:10:26.897Z,13.67
2023-02-28T14:13:14.794Z,13.37
2023-02-28T14:15:58.643Z,13.90
2023-02-28T14:18:34.442Z,13.77
2023-02-28T14:21:26.386Z,14.07
2023-02-28T14:24:43.916Z,14.07
2023-02-28T14:27:36.715Z,14.03
2023-02-28T14:30:44.396Z,12.83
2023-02-28T14:33:29.041Z,13.63
2023-02-28T14:36:19.671Z,13.17
2023-02-28T14:38:55.258Z,13.93
2023-02-28T14:41:36.236Z,14.47
2023-02-28T14:44:21.076Z,14.30
2023-02-28T14:46:57.309Z,12.87
2023-02-28T14:49:33.044Z,14.03
2023-02-28T14:52:15.141Z,14.93
2023-02-28T14:54:53.887Z,14.50
2023-02-28T14:57:30.699Z,14.30
2023-02-28T15:00:14.691Z,14.67
2023-02-28T15:02:47.769Z,14.40
2023-02-28T15:05:31.098Z,13.40
2023-02-28T15:08:09.120Z,14.43
2023-02-28T15:10:45.098Z,15.20
2023-02-28T15:13:18.897Z,14.03
2023-02-28T15:16:02.473Z,13.83
2023-02-28T15:18:47.091Z,14.20
2023-02-28T15:21:23.170Z,14.13
2023-02-28T15:24:01.554Z,14.30
2023-02-28T15:26:37.782Z,13.73
2023-02-28T15:29:17.271Z,14.43
2023-02-28T15:31:58.301Z,14.63
2023-02-28T15:34:43.384Z,14.40
2023-02-28T15:37:43.178Z,14.37
2023-02-28T15:40:19.682Z,13.80
2023-02-28T15:43:15.235Z,13.50
2023-02-28T15:45:51.168Z,13.83
2023-02-28T15:48:28.901Z,13.70
2023-02-28T15:51:08.592Z,13.90
2023-02-28T15:53:49.922Z,14.37
2023-02-28T15:56:28.076Z,13.40
2023-02-28T15:59:05.440Z,14.27
2023-02-28T16:01:40.422Z,14.07
2023-02-28T16:04:19.341Z,14.30
2023-02-28T16:07:04.677Z,13.20
2023-02-28T16:09:38.593Z,14.23
2023-02-28T16:12:14.429Z,13.63
2023-02-28T16:14:48.426Z,15.13
2023-02-28T16:17:24.248Z,13.00
2023-02-28T16:19:59.116Z,13.63
2023-02-28T16:22:32.097Z,13.73
2023-02-28T16:25:08.832Z,14.50
2023-02-28T16:27:42.458Z,13.80
2023-02-28T16:30:22.835Z,15.13
2023-02-28T16:32:57.593Z,14.40
2023-02-28T16:35:31.914Z,13.47
2023-02-28T16:38:05.066Z,14.57
2023-02-28T16:40:38.756Z,14.50
2023-02-28T16:43:18.652Z,15.33
2023-02-28T16:46:01.155Z,14.63
2023-02-28T16:48:34.459Z,14.60
2023-02-28T16:51:13.077Z,15.00
2023-02-28T16:53:47.078Z,15.00
2023-02-28T16:56:22.676Z,14.03
2023-02-28T16:59:02.210Z,14.80
2023-02-28T17:01:35.572Z,14.40
2023-02-28T17:04:10.391Z,16.33
2023-02-28T17:06:44.785Z,17.17
2023-02-28T17:09:21.007Z,15.97
2023-02-28T17:11:54.843Z,16.83
2023-02-28T17:14:27.934Z,16.37
2023-02-28T17:17:00.991Z,15.83
2023-02-28T17:19:34.526Z,17.07
2023-02-28T17:22:10.907Z,15.03
2023-02-28T17:24:43.905Z,14.17
2023-02-28T17:27:16.888Z,16.17
2023-02-28T17:29:49.988Z,16.70
2023-02-28T17:32:23.007Z,14.47
2023-02-28T17:34:55.989Z,14.30
2023-02-28T17:37:31.189Z,16.30
2023-02-28T17:40:05.128Z,15.80
2023-02-28T17:42:38.134Z,14.70
2023-02-28T17:45:12.117Z,16.63
2023-02-28T17:47:48.936Z,17.00
2023-02-28T17:50:24.053Z,16.60
2023-02-28T17:52:59.431Z,16.27
2023-02-28T17:55:32.368Z,15.27
2023-02-28T17:58:05.825Z,15.87
2023-02-28T18:00:39.184Z,25.40
2023-02-28T18:03:13.780Z,22.90
2023-02-28T18:05:46.760Z,24.40
2023-02-28T18:08:21.219Z,26.50
2023-02-28T18:10:54.713Z,19.40
2023-02-28T18:13:28.616Z,17.83
2023-02-28T18:16:01.620Z,18.77
2023-02-28T18:18:38.066Z,19.23
2023-02-28T18:21:14.832Z,19.70
2023-02-28T18:23:50.030Z,24.47
2023-02-28T18:26:23.005Z,25.30
2023-02-28T18:28:55.965Z,21.40
2023-02-28T18:31:29.001Z,22.70
2023-02-28T18:34:02.733Z,20.30
2023-02-28T18:36:35.657Z,21.27
2023-02-28T18:39:11.944Z,21.07
2023-02-28T18:41:44.941Z,20.27
2023-02-28T18:44:20.162Z,20.83
2023-02-28T18:46:53.805Z,25.00
2023-02-28T18:49:26.849Z,21.30
2023-02-28T18:51:59.830Z,22.00
2023-02-28T18:54:34.145Z,21.13
2023-02-28T18:57:07.205Z,21.90
2023-02-28T18:59:40.159Z,35.37
2023-02-28T19:02:13.113Z,26.17
2023-02-28T19:04:46.167Z,25.87
2023-02-28T19:07:19.162Z,22.80
2023-02-28T19:09:53.450Z,22.93
2023-02-28T19:12:26.578Z,21.97
2023-02-28T19:15:00.235Z,23.97
2023-02-28T19:17:33.465Z,20.27
2023-02-28T19:20:09.147Z,20.87
2023-02-28T19:22:42.522Z,21.73
2023-02-28T19:25:17.248Z,21.83
2023-02-28T19:27:53.371Z,21.37
2023-02-28T19:30:26.698Z,19.93
2023-02-28T19:32:59.679Z,20.00
2023-02-28T19:35:32.758Z,20.33
2023-02-28T19:38:05.709Z,20.47
2023-02-28T19:40:40.348Z,19.93
2023-02-28T19:43:13.676Z,20.43
2023-02-28T19:45:47.375Z,19.10
2023-02-28T19:48:25.030Z,20.77
2023-02-28T19:50:59.630Z,26.83
2023-02-28T19:53:34.418Z,23.73
2023-02-28T19:56:10.052Z,25.80
2023-02-28T19:58:43.042Z,23.53
2023-02-28T20:01:19.217Z,22.37
2023-02-28T20:03:52.821Z,23.17
2023-02-28T20:06:25.828Z,22.47
2023-02-28T20:08:58.857Z,21.57
2023-02-28T20:11:33.154Z,21.63
2023-02-28T20:14:06.242Z,19.67
2023-02-28T20:16:42.484Z,21.77
2023-02-28T20:19:15.426Z,20.13
2023-02-28T20:21:48.387Z,19.23
2023-02-28T20:24:25.704Z,21.00
2023-02-28T20:27:00.057Z,19.83
2023-02-28T20:29:34.419Z,22.07
2023-02-28T20:32:08.127Z,20.63
2023-02-28T20:34:41.428Z,19.87
2023-02-28T20:37:14.399Z,19.10
2023-02-28T20:39:48.456Z,20.53
2023-02-28T20:42:22.773Z,18.63
2023-02-28T20:44:55.710Z,20.07
2023-02-28T20:47:29.400Z,19.73
2023-02-28T20:50:02.366Z,21.53
2023-02-28T20:52:35.347Z,23.23
2023-02-28T20:55:09.479Z,23.27
2023-02-28T20:57:43.799Z,22.53
2023-02-28T21:00:19.425Z,24.73
2023-02-28T21:02:52.394Z,25.47
2023-02-28T21:05:25.527Z,24.93
2023-02-28T21:07:58.522Z,24.27
2023-02-28T21:10:32.197Z,23.73
2023-02-28T21:13:06.494Z,25.07
2023-02-28T21:15:40.351Z,21.07
2023-02-28T21:18:13.418Z,20.67
2023-02-28T21:20:46.780Z,21.27
2023-02-28T21:23:19.744Z,20.83
2023-02-28T21:25:53.332Z,21.07
2023-02-28T21:28:27.651Z,21.53
2023-02-28T21:31:04.951Z,19.83
2023-02-28T21:33:38.001Z,20.67
2023-02-28T21:36:14.444Z,19.10
2023-02-28T21:38:50.990Z,21.33
2023-02-28T21:41:25.491Z,21.53
2023-02-28T21:43:59.811Z,20.70
2023-02-28T21:46:33.325Z,22.17
2023-02-28T21:49:06.539Z,20.50
2023-02-28T21:51:39.880Z,20.53
2023-02-28T21:54:13.295Z,21.00
2023-02-28T21:56:46.269Z,22.33
2023-02-28T21:59:21.274Z,20.90
2023-02-28T22:01:54.995Z,24.63
2023-02-28T22:04:28.020Z,24.00
2023-02-28T22:07:00.965Z,22.43
2023-02-28T22:09:33.954Z,22.03
2023-02-28T22:12:08.478Z,22.07
2023-02-28T22:14:45.259Z,22.23
2023-02-28T22:17:18.211Z,20.43
2023-02-28T22:19:51.164Z,21.90
2023-02-28T22:22:24.901Z,21.67
2023-02-28T22:24:58.084Z,20.63
2023-02-28T22:27:31.056Z,21.23
2023-02-28T22:30:06.298Z,21.20
2023-02-28T22:32:39.250Z,22.23
2023-02-28T22:35:12.187Z,21.03
2023-02-28T22:37:45.138Z,22.33
2023-02-28T22:40:18.319Z,24.03
2023-02-28T22:42:51.545Z,24.90
2023-02-28T22:45:27.200Z,21.90
2023-02-28T22:48:00.158Z,22.30
2023-02-28T22:50:33.826Z,21.80
2023-02-28T22:53:06.818Z,20.63
2023-02-28T22:55:39.792Z,22.20
2023-02-28T22:58:12.769Z,23.90
2023-02-28T23:00:47.181Z,22.47
2023-02-28T23:03:20.145Z,21.73
2023-02-28T23:05:53.362Z,23.23
2023-02-28T23:08:26.331Z,21.63
2023-02-28T23:10:59.314Z,26.50
2023-02-28T23:13:32.337Z,25.47
2023-02-28T23:16:09.442Z,21.03
2023-02-28T23:18:42.471Z,23.13
2023-02-28T23:21:15.483Z,21.73
2023-02-28T23:23:48.509Z,20.90
2023-02-28T23:26:21.602Z,21.80
2023-02-28T23:28:54.584Z,23.20
2023-02-28T23:31:28.946Z,21.83
2023-02-28T23:34:01.981Z,26.03
2023-02-28T23:36:35.128Z,23.33
2023-02-28T23:39:09.392Z,22.53
2023-02-28T23:41:42.353Z,20.20
2023-02-28T23:44:16.925Z,21.90
2023-02-28T23:46:53.140Z,21.30
2023-02-28T23:49:26.196Z,24.63
2023-02-28T23:51:59.925Z,24.00
2023-02-28T23:54:33.203Z,21.60
2023-02-28T23:57:07.567Z,22.90
2023-02-28T23:59:40.933Z,21.53
